Archival Weather

Fukuoka

Fukuoka, Japan (RJFF)

Report from: Tuesday, August 16, 2022 8:08 PM JST
Current time: Sunday, November 27, 2022 5:21 PM JST

Current weather
Weather history
Weather forecast

Present weatherHeavy rain showers, mist
Temperature26.0°C (78.8°F)
Dew point26.0°C (78.8°F)
Winds 12 kts (6.2 m/s, 13.8 mph) South-Southeast (160°)
Visibility2.2 mi. (3.5 km)
Clouds Few clouds 500 ft. (152 m)
Few clouds with cumulonimbus 3,000 ft. (914 m)
Scattered clouds 3,500 ft. (1,067 m)
Ceiling: Broken clouds 4,000 ft. (1,219 m)
Altimeter29.74 in.Hg (1007 mB)
Precip. events C 8:02 PM
Relative humidity100 %
Density altitude1,930 ft. (588 m)
Remarks Special weather observation
Cumulonimbus clouds observed south west moving northeast
Flight conditions Instrument Meteorological Conditions
Raw dataSPJP31 KWBC 161115 SPECI RJFF 161108Z 16012KT 3500 +SHRA BR FEW005 FEW030CB SCT035 BKN040 26/26 Q1007 RMK 1ST005 2CB030 4CU035 5CU040 A2976 CB 10KM S-W MOV NE RI++
An error has occurred. This application may no longer respond until reloaded. Reload 🗙